createdAt,value
2023-02-05T00:00:47.518Z,49.32
2023-02-05T00:03:36.089Z,49.28
2023-02-05T00:06:03.395Z,49.47
2023-02-05T00:08:31.236Z,49.07
2023-02-05T00:10:58.338Z,48.94
2023-02-05T00:13:25.154Z,49.19
2023-02-05T00:15:52.207Z,49.34
2023-02-05T00:18:18.962Z,49.33
2023-02-05T00:20:46.036Z,49.33
2023-02-05T00:23:12.796Z,49.38
2023-02-05T00:25:39.853Z,49.10
2023-02-05T00:28:06.708Z,49.34
2023-02-05T00:30:34.004Z,49.22
2023-02-05T00:33:01.149Z,49.06
2023-02-05T00:35:28.310Z,48.98
2023-02-05T00:37:56.401Z,49.34
2023-02-05T00:40:23.445Z,49.40
2023-02-05T00:42:50.220Z,49.16
2023-02-05T00:45:17.512Z,49.62
2023-02-05T00:47:44.288Z,49.56
2023-02-05T00:50:11.399Z,49.21
2023-02-05T00:52:38.210Z,49.39
2023-02-05T00:55:05.859Z,49.15
2023-02-05T00:57:33.056Z,49.27
2023-02-05T01:00:00.221Z,49.16
2023-02-05T01:02:27.050Z,49.17
2023-02-05T01:04:54.281Z,49.38
2023-02-05T01:07:21.131Z,49.64
2023-02-05T01:09:48.317Z,49.37
2023-02-05T01:12:15.215Z,49.37
2023-02-05T01:14:42.612Z,49.46
2023-02-05T01:17:09.489Z,49.49
2023-02-05T01:19:36.934Z,49.58
2023-02-05T01:22:03.993Z,49.59
2023-02-05T01:24:31.156Z,49.71
2023-02-05T01:26:58.778Z,49.37
2023-02-05T01:29:28.386Z,49.42
2023-02-05T01:31:56.120Z,49.42
2023-02-05T01:34:23.333Z,49.46
2023-02-05T01:36:50.147Z,49.68
2023-02-05T01:39:17.261Z,49.62
2023-02-05T01:41:45.609Z,49.59
2023-02-05T01:44:24.399Z,49.57
2023-02-05T01:46:52.376Z,49.48
2023-02-05T01:49:30.407Z,49.66
2023-02-05T01:51:59.575Z,49.58
2023-02-05T01:54:26.954Z,49.41
2023-02-05T01:57:01.234Z,49.84
2023-02-05T01:59:29.538Z,49.77
2023-02-05T02:01:56.587Z,49.87
2023-02-05T02:04:45.912Z,49.70
2023-02-05T02:07:14.878Z,49.66
2023-02-05T02:09:42.594Z,49.69
2023-02-05T02:12:09.944Z,49.72
2023-02-05T02:14:37.266Z,49.74
2023-02-05T02:17:04.080Z,49.69
2023-02-05T02:19:34.164Z,49.95
2023-02-05T02:22:12.559Z,49.44
2023-02-05T02:24:58.447Z,50.01
2023-02-05T02:28:00.654Z,49.90
2023-02-05T02:30:35.240Z,49.94
2023-02-05T02:33:12.844Z,49.78
2023-02-05T02:36:03.224Z,49.94
2023-02-05T02:38:33.559Z,49.83
2023-02-05T02:41:13.519Z,49.58
2023-02-05T02:43:53.644Z,49.63
2023-02-05T02:46:23.515Z,50.08
2023-02-05T02:48:51.189Z,49.90
2023-02-05T02:51:18.665Z,49.85
2023-02-05T02:53:47.786Z,49.78
2023-02-05T02:56:15.042Z,49.77
2023-02-05T02:58:46.974Z,49.85
2023-02-05T03:01:14.159Z,49.93
2023-02-05T03:03:44.659Z,49.77
2023-02-05T03:06:11.876Z,50.21
2023-02-05T03:09:00.362Z,50.18
2023-02-05T03:11:27.552Z,50.13
2023-02-05T03:13:55.756Z,49.73
2023-02-05T03:16:24.426Z,50.08
2023-02-05T03:18:51.312Z,50.10
2023-02-05T03:21:23.799Z,50.23
2023-02-05T03:23:50.627Z,50.12
2023-02-05T03:26:31.558Z,50.29
2023-02-05T03:28:58.759Z,50.17
2023-02-05T03:31:33.045Z,50.20
2023-02-05T03:34:23.114Z,50.20
2023-02-05T03:37:16.778Z,50.10
2023-02-05T03:40:08.497Z,50.14
2023-02-05T03:42:57.158Z,50.08
2023-02-05T03:45:39.059Z,50.16
2023-02-05T03:48:26.422Z,50.15
2023-02-05T03:51:02.725Z,50.51
2023-02-05T03:53:36.412Z,50.33
2023-02-05T03:56:13.243Z,50.06
2023-02-05T03:58:46.132Z,50.32
2023-02-05T04:01:21.145Z,50.05
2023-02-05T04:03:48.164Z,50.47
2023-02-05T04:06:14.930Z,50.56
2023-02-05T04:08:44.100Z,50.50
2023-02-05T04:11:11.547Z,50.63
2023-02-05T04:13:38.665Z,50.50
2023-02-05T04:16:05.665Z,50.35
2023-02-05T04:18:32.750Z,50.38
2023-02-05T04:21:00.573Z,50.58
2023-02-05T04:23:27.652Z,50.62
2023-02-05T04:25:54.908Z,50.60
2023-02-05T04:28:22.116Z,50.56
2023-02-05T04:30:48.939Z,50.32
2023-02-05T04:33:16.057Z,50.64
2023-02-05T04:35:42.874Z,50.32
2023-02-05T04:38:09.933Z,50.71
2023-02-05T04:40:36.678Z,50.77
2023-02-05T04:43:03.842Z,50.38
2023-02-05T04:45:31.469Z,50.53
2023-02-05T04:47:59.661Z,50.66
2023-02-05T04:50:26.891Z,50.37
2023-02-05T04:52:54.053Z,50.67
2023-02-05T04:55:20.999Z,50.71
2023-02-05T04:57:48.158Z,50.48
2023-02-05T05:00:15.158Z,50.45
2023-02-05T05:02:42.305Z,50.29
2023-02-05T05:05:09.130Z,50.74
2023-02-05T05:07:36.233Z,50.41
2023-02-05T05:10:03.026Z,49.98
2023-02-05T05:12:30.095Z,50.50
2023-02-05T05:14:57.087Z,50.74
2023-02-05T05:17:24.154Z,50.51
2023-02-05T05:19:50.916Z,50.55
2023-02-05T05:22:17.996Z,50.68
2023-02-05T05:24:44.761Z,50.99
2023-02-05T05:27:11.848Z,50.27
2023-02-05T05:29:38.760Z,50.74
2023-02-05T05:32:05.829Z,50.65
2023-02-05T05:34:32.635Z,50.61
2023-02-05T05:36:59.782Z,50.68
2023-02-05T05:39:45.151Z,50.52
2023-02-05T05:42:30.851Z,50.36
2023-02-05T05:44:57.627Z,50.62
2023-02-05T05:47:24.686Z,50.67
2023-02-05T05:49:51.488Z,50.75
2023-02-05T05:52:18.535Z,50.74
2023-02-05T05:54:45.407Z,50.56
2023-02-05T05:57:12.543Z,50.82
2023-02-05T05:59:39.292Z,50.68
2023-02-05T06:02:06.394Z,51.00
2023-02-05T06:04:33.208Z,50.89
2023-02-05T06:07:02.311Z,50.94
2023-02-05T06:09:29.275Z,50.64
2023-02-05T06:11:56.402Z,50.94
2023-02-05T06:14:23.144Z,50.67
2023-02-05T06:16:50.261Z,50.76
2023-02-05T06:19:17.030Z,50.69
2023-02-05T06:21:44.080Z,51.00
2023-02-05T06:24:10.794Z,50.72
2023-02-05T06:26:37.944Z,50.95
2023-02-05T06:29:04.700Z,50.92
2023-02-05T06:31:31.924Z,50.78
2023-02-05T06:33:58.764Z,51.06
2023-02-05T06:36:25.928Z,50.80
2023-02-05T06:38:52.898Z,50.86
2023-02-05T06:41:20.010Z,50.62
2023-02-05T06:43:46.849Z,50.64
2023-02-05T06:46:14.116Z,51.18
2023-02-05T06:48:40.898Z,50.50
2023-02-05T06:51:08.081Z,50.91
2023-02-05T06:53:34.812Z,50.58
2023-02-05T06:56:01.941Z,50.73
2023-02-05T06:58:28.756Z,51.02
2023-02-05T07:00:56.045Z,50.72
2023-02-05T07:03:22.819Z,50.75
2023-02-05T07:05:49.906Z,50.51
2023-02-05T07:08:16.964Z,50.63
2023-02-05T07:10:44.015Z,51.15
2023-02-05T07:13:10.971Z,50.73
2023-02-05T07:15:38.204Z,50.99
2023-02-05T07:18:05.296Z,51.13
2023-02-05T07:20:32.398Z,51.07
2023-02-05T07:22:59.182Z,50.93
2023-02-05T07:25:26.630Z,50.73
2023-02-05T07:27:53.472Z,50.72
2023-02-05T07:30:20.763Z,50.90
2023-02-05T07:32:47.542Z,50.87
2023-02-05T07:35:14.714Z,50.81
2023-02-05T07:37:41.540Z,50.42
2023-02-05T07:40:09.227Z,50.80
2023-02-05T07:42:36.123Z,50.83
2023-02-05T07:45:03.365Z,50.22
2023-02-05T07:47:30.246Z,50.16
2023-02-05T07:49:57.320Z,50.58
2023-02-05T07:52:24.067Z,50.38
2023-02-05T07:54:51.254Z,50.32
2023-02-05T07:57:18.010Z,50.59
2023-02-05T07:59:45.060Z,50.31
2023-02-05T08:02:11.924Z,49.94
2023-02-05T08:04:39.096Z,50.42
2023-02-05T08:07:06.049Z,49.86
2023-02-05T08:09:33.434Z,50.14
2023-02-05T08:12:00.167Z,50.27
2023-02-05T08:14:27.306Z,49.96
2023-02-05T08:16:54.077Z,50.15
2023-02-05T08:19:21.127Z,50.23
2023-02-05T08:21:47.953Z,50.28
2023-02-05T08:24:15.139Z,50.37
2023-02-05T08:26:42.182Z,50.30
2023-02-05T08:29:09.463Z,50.16
2023-02-05T08:31:36.628Z,50.42
2023-02-05T08:34:03.823Z,50.05
2023-02-05T08:36:31.822Z,50.27
2023-02-05T08:38:58.867Z,50.03
2023-02-05T08:41:25.648Z,50.03
2023-02-05T08:43:52.744Z,50.23
2023-02-05T08:46:21.220Z,50.23
2023-02-05T08:48:48.448Z,50.27
2023-02-05T08:51:15.635Z,49.88
2023-02-05T08:53:42.758Z,50.05
2023-02-05T08:56:10.813Z,50.15
2023-02-05T08:58:38.760Z,50.32
2023-02-05T09:01:13.988Z,50.33
2023-02-05T09:03:41.308Z,50.16
2023-02-05T09:06:09.709Z,50.05
2023-02-05T09:08:36.846Z,50.47
2023-02-05T09:11:03.720Z,50.36
2023-02-05T09:13:30.787Z,50.24
2023-02-05T09:15:57.614Z,50.18
2023-02-05T09:18:24.814Z,50.25
2023-02-05T09:20:51.900Z,49.89
2023-02-05T09:23:19.225Z,50.37
2023-02-05T09:25:46.026Z,49.96
2023-02-05T09:28:13.622Z,50.12
2023-02-05T09:30:42.687Z,49.94
2023-02-05T09:33:10.345Z,49.35
2023-02-05T09:35:37.366Z,49.33
2023-02-05T09:38:04.552Z,49.90
2023-02-05T09:40:40.521Z,49.76
2023-02-05T09:43:21.128Z,49.64
2023-02-05T09:45:55.327Z,49.79
2023-02-05T09:48:46.583Z,49.75
2023-02-05T09:51:13.425Z,49.50
2023-02-05T09:53:43.201Z,49.23
2023-02-05T09:56:09.982Z,48.92
2023-02-05T09:58:41.952Z,49.07
2023-02-05T10:01:35.201Z,49.52
2023-02-05T10:04:04.079Z,49.22
2023-02-05T10:06:47.420Z,49.31
2023-02-05T10:09:29.603Z,48.99
2023-02-05T10:12:18.807Z,48.84
2023-02-05T10:14:54.177Z,49.02
2023-02-05T10:17:46.327Z,49.18
2023-02-05T10:20:38.880Z,48.98
2023-02-05T10:23:16.683Z,49.25
2023-02-05T10:26:01.810Z,49.13
2023-02-05T10:28:44.056Z,49.11
2023-02-05T10:31:32.484Z,49.29
2023-02-05T10:34:22.426Z,49.15
2023-02-05T10:36:51.211Z,48.60
2023-02-05T10:39:19.268Z,48.99
2023-02-05T10:41:49.885Z,49.13
2023-02-05T10:44:40.741Z,49.27
2023-02-05T10:47:21.599Z,49.01
2023-02-05T10:49:52.121Z,48.95
2023-02-05T10:52:19.344Z,49.02
2023-02-05T10:54:46.332Z,49.14
2023-02-05T10:57:15.757Z,48.76
2023-02-05T10:59:55.232Z,49.21
2023-02-05T11:02:22.592Z,48.73
2023-02-05T11:04:56.666Z,48.58
2023-02-05T11:07:39.874Z,48.96
2023-02-05T11:10:17.144Z,49.00
2023-02-05T11:12:45.832Z,49.04
2023-02-05T11:15:39.019Z,48.87
2023-02-05T11:18:06.759Z,49.01
2023-02-05T11:20:34.890Z,49.12
2023-02-05T11:23:31.029Z,49.19
2023-02-05T11:26:22.237Z,48.81
2023-02-05T11:28:49.363Z,49.00
2023-02-05T11:31:35.071Z,48.95
2023-02-05T11:34:08.242Z,49.03
2023-02-05T11:36:39.703Z,49.07
2023-02-05T11:39:07.033Z,49.11
2023-02-05T11:41:48.368Z,49.02
2023-02-05T11:44:27.580Z,49.20
2023-02-05T11:46:57.067Z,49.11
2023-02-05T11:49:35.606Z,49.31
2023-02-05T11:52:11.648Z,48.92
2023-02-05T11:54:38.707Z,48.89
2023-02-05T11:57:17.913Z,48.82
2023-02-05T11:59:54.849Z,49.17
2023-02-05T12:02:33.556Z,48.91
2023-02-05T12:05:12.447Z,48.80
2023-02-05T12:07:51.269Z,48.49
2023-02-05T12:10:39.714Z,48.68
2023-02-05T12:13:39.321Z,48.60
2023-02-05T12:16:21.852Z,48.45
2023-02-05T12:19:23.195Z,48.19
2023-02-05T12:22:00.554Z,48.76
2023-02-05T12:24:36.523Z,48.44
2023-02-05T12:27:21.328Z,48.74
2023-02-05T12:30:12.904Z,48.40
2023-02-05T12:33:15.503Z,48.46
2023-02-05T12:35:57.477Z,48.39
2023-02-05T12:38:48.792Z,48.40
2023-02-05T12:41:35.019Z,48.65
2023-02-05T12:44:24.325Z,48.37
2023-02-05T12:46:57.021Z,48.49
2023-02-05T12:50:12.223Z,48.23
2023-02-05T12:52:47.733Z,48.75
2023-02-05T12:55:53.423Z,48.62
2023-02-05T12:58:20.471Z,48.72
2023-02-05T13:00:57.434Z,48.60
2023-02-05T13:03:36.473Z,48.16
2023-02-05T13:06:20.614Z,48.12
2023-02-05T13:08:53.565Z,48.36
2023-02-05T13:11:29.895Z,48.17
2023-02-05T13:14:00.375Z,47.94
2023-02-05T13:16:35.474Z,48.09
2023-02-05T13:19:08.274Z,48.30
2023-02-05T13:21:53.895Z,47.89
2023-02-05T13:24:51.558Z,47.98
2023-02-05T13:27:59.205Z,47.86
2023-02-05T13:30:36.308Z,47.68
2023-02-05T13:33:05.000Z,47.92
2023-02-05T13:35:51.483Z,47.97
2023-02-05T13:38:32.282Z,47.49
2023-02-05T13:41:33.376Z,47.35
2023-02-05T13:44:03.456Z,47.64
2023-02-05T13:46:55.095Z,47.78
2023-02-05T13:49:40.576Z,47.70
2023-02-05T13:52:32.845Z,47.89
2023-02-05T13:55:24.748Z,47.49
2023-02-05T13:58:10.380Z,47.93
2023-02-05T14:00:39.578Z,47.48
2023-02-05T14:03:08.562Z,47.88
2023-02-05T14:05:37.763Z,47.60
2023-02-05T14:08:04.782Z,47.70
2023-02-05T14:10:34.014Z,48.16
2023-02-05T14:13:18.090Z,47.80
2023-02-05T14:15:45.387Z,47.77
2023-02-05T14:18:41.517Z,48.25
2023-02-05T14:21:30.455Z,47.72
2023-02-05T14:24:18.984Z,48.35
2023-02-05T14:26:48.840Z,47.95
2023-02-05T14:29:44.003Z,48.07
2023-02-05T14:32:31.806Z,48.16
2023-02-05T14:35:05.237Z,48.37
2023-02-05T14:37:42.722Z,48.24
2023-02-05T14:40:23.144Z,48.26
2023-02-05T14:42:53.268Z,48.12
2023-02-05T14:45:21.091Z,48.29
2023-02-05T14:47:48.204Z,48.10
2023-02-05T14:50:29.062Z,48.19
2023-02-05T14:53:00.081Z,48.08
2023-02-05T14:55:30.129Z,48.10
2023-02-05T14:58:04.887Z,47.99
2023-02-05T15:00:36.570Z,48.20
2023-02-05T15:03:12.896Z,48.10
2023-02-05T15:05:46.289Z,47.88
2023-02-05T15:08:34.672Z,48.28
2023-02-05T15:11:32.399Z,48.14
2023-02-05T15:14:21.257Z,48.41
2023-02-05T15:17:06.229Z,48.44
2023-02-05T15:19:34.086Z,48.43
2023-02-05T15:22:00.928Z,48.24
2023-02-05T15:24:28.140Z,48.68
2023-02-05T15:27:01.593Z,48.27
2023-02-05T15:29:35.741Z,48.10
2023-02-05T15:32:05.328Z,48.21
2023-02-05T15:34:32.389Z,48.06
2023-02-05T15:37:01.238Z,48.04
2023-02-05T15:39:50.444Z,48.46
2023-02-05T15:42:19.853Z,48.30
2023-02-05T15:44:47.034Z,48.29
2023-02-05T15:47:26.593Z,48.67
2023-02-05T15:49:57.569Z,48.73
2023-02-05T15:52:27.080Z,48.63
2023-02-05T15:54:56.465Z,48.90
2023-02-05T15:57:25.030Z,48.69
2023-02-05T15:59:53.377Z,48.98
2023-02-05T16:02:25.114Z,48.74
2023-02-05T16:04:58.979Z,48.59
2023-02-05T16:07:26.781Z,48.67
2023-02-05T16:09:56.319Z,48.46
2023-02-05T16:12:23.307Z,49.02
2023-02-05T16:15:00.561Z,48.73
2023-02-05T16:17:44.141Z,48.45
2023-02-05T16:20:22.571Z,48.56
2023-02-05T16:22:52.765Z,49.03
2023-02-05T16:25:28.400Z,48.41
2023-02-05T16:27:55.344Z,48.49
2023-02-05T16:30:40.577Z,48.52
2023-02-05T16:33:07.501Z,48.41
2023-02-05T16:35:39.604Z,48.38
2023-02-05T16:38:09.248Z,48.50
2023-02-05T16:40:39.441Z,48.47
2023-02-05T16:43:29.327Z,48.53
2023-02-05T16:46:08.669Z,48.75
2023-02-05T16:48:41.677Z,48.21
2023-02-05T16:51:26.699Z,48.03
2023-02-05T16:53:53.563Z,48.51
2023-02-05T16:56:23.024Z,48.64
2023-02-05T16:58:51.917Z,48.88
2023-02-05T17:01:48.565Z,48.97
2023-02-05T17:04:27.040Z,48.71
2023-02-05T17:06:56.690Z,48.76
2023-02-05T17:09:37.449Z,48.67
2023-02-05T17:12:20.211Z,48.81
2023-02-05T17:15:15.242Z,48.85
2023-02-05T17:17:52.634Z,48.55
2023-02-05T17:20:20.978Z,48.91
2023-02-05T17:23:00.506Z,49.13
2023-02-05T17:25:27.884Z,48.81
2023-02-05T17:27:55.117Z,49.00
2023-02-05T17:30:22.125Z,48.66
2023-02-05T17:32:50.705Z,48.72
2023-02-05T17:35:17.773Z,48.74
2023-02-05T17:37:44.885Z,48.90
2023-02-05T17:40:15.040Z,48.82
2023-02-05T17:42:42.500Z,48.47
2023-02-05T17:45:21.731Z,48.74
2023-02-05T17:47:49.642Z,48.51
2023-02-05T17:50:16.675Z,48.59
2023-02-05T17:52:44.404Z,47.80
2023-02-05T17:55:15.577Z,48.57
2023-02-05T17:57:43.059Z,48.34
2023-02-05T18:00:14.588Z,48.38
2023-02-05T18:02:41.763Z,48.36
2023-02-05T18:05:08.856Z,47.96
2023-02-05T18:07:38.657Z,48.40
2023-02-05T18:10:06.586Z,48.22
2023-02-05T18:12:33.732Z,48.54
2023-02-05T18:15:00.706Z,48.45
2023-02-05T18:17:27.791Z,48.10
2023-02-05T18:19:54.601Z,47.99
2023-02-05T18:22:32.066Z,48.00
2023-02-05T18:24:59.002Z,47.66
2023-02-05T18:27:26.104Z,48.01
2023-02-05T18:29:53.118Z,48.10
2023-02-05T18:32:20.251Z,48.25
2023-02-05T18:34:47.115Z,48.70
2023-02-05T18:37:16.602Z,47.97
2023-02-05T18:39:43.869Z,48.11
2023-02-05T18:42:12.854Z,47.91
2023-02-05T18:44:39.789Z,48.06
2023-02-05T18:47:07.300Z,48.65
2023-02-05T18:49:34.641Z,48.54
2023-02-05T18:52:02.286Z,48.71
2023-02-05T18:54:29.267Z,48.57
2023-02-05T18:56:57.083Z,48.56
2023-02-05T18:59:25.777Z,48.65
2023-02-05T19:01:53.003Z,48.75
2023-02-05T19:04:20.799Z,48.55
2023-02-05T19:06:52.401Z,48.54
2023-02-05T19:09:20.414Z,48.61
2023-02-05T19:11:47.797Z,48.75
2023-02-05T19:14:16.726Z,48.70
2023-02-05T19:16:43.947Z,48.48
2023-02-05T19:19:15.639Z,48.82
2023-02-05T19:21:44.934Z,48.54
2023-02-05T19:24:12.796Z,48.70
2023-02-05T19:26:43.541Z,49.10
2023-02-05T19:29:15.120Z,48.84
2023-02-05T19:31:42.526Z,48.62
2023-02-05T19:34:09.372Z,48.92
2023-02-05T19:36:36.573Z,48.74
2023-02-05T19:39:04.847Z,48.75
2023-02-05T19:41:32.799Z,48.87
2023-02-05T19:44:02.336Z,48.87
2023-02-05T19:46:31.889Z,48.50
2023-02-05T19:49:04.110Z,48.76
2023-02-05T19:51:31.277Z,48.83
2023-02-05T19:53:58.617Z,48.46
2023-02-05T19:56:26.308Z,48.39
2023-02-05T19:58:54.335Z,48.67
2023-02-05T20:01:29.328Z,48.92
2023-02-05T20:04:10.304Z,48.96
2023-02-05T20:06:37.712Z,48.90
2023-02-05T20:09:10.190Z,48.87
2023-02-05T20:11:41.170Z,49.40
2023-02-05T20:14:08.384Z,49.11
2023-02-05T20:16:35.613Z,49.37
2023-02-05T20:19:02.566Z,49.49
2023-02-05T20:21:29.818Z,49.27
2023-02-05T20:23:56.723Z,49.19
2023-02-05T20:26:23.893Z,49.46
2023-02-05T20:29:11.509Z,49.56
2023-02-05T20:31:43.462Z,49.29
2023-02-05T20:34:20.477Z,49.57
2023-02-05T20:36:48.636Z,49.33
2023-02-05T20:39:17.644Z,49.63
2023-02-05T20:41:49.574Z,49.58
2023-02-05T20:44:16.558Z,49.41
2023-02-05T20:46:43.823Z,49.41
2023-02-05T20:49:10.702Z,49.54
2023-02-05T20:51:38.030Z,49.26
2023-02-05T20:54:04.905Z,49.29
2023-02-05T20:56:32.191Z,49.38
2023-02-05T20:58:59.871Z,49.52
2023-02-05T21:01:27.469Z,49.25
2023-02-05T21:03:57.797Z,49.53
2023-02-05T21:06:25.050Z,49.54
2023-02-05T21:08:52.258Z,49.42
2023-02-05T21:11:19.640Z,49.83
2023-02-05T21:13:46.762Z,49.39
2023-02-05T21:16:14.434Z,49.41
2023-02-05T21:18:42.958Z,49.19
2023-02-05T21:21:14.366Z,49.58
2023-02-05T21:23:41.446Z,49.65
2023-02-05T21:26:09.188Z,49.84
2023-02-05T21:28:35.945Z,49.82
2023-02-05T21:31:07.348Z,49.61
2023-02-05T21:33:35.072Z,49.46
2023-02-05T21:36:06.916Z,49.39
2023-02-05T21:38:37.796Z,49.63
2023-02-05T21:41:12.209Z,49.50
2023-02-05T21:43:42.206Z,49.44
2023-02-05T21:46:12.777Z,49.68
2023-02-05T21:48:39.819Z,49.82
2023-02-05T21:51:11.833Z,49.87
2023-02-05T21:53:38.904Z,49.80
2023-02-05T21:56:07.794Z,49.53
2023-02-05T21:58:35.402Z,49.62
2023-02-05T22:01:16.007Z,49.96
2023-02-05T22:03:43.292Z,49.58
2023-02-05T22:06:10.520Z,49.81
2023-02-05T22:08:38.197Z,49.68
2023-02-05T22:11:06.955Z,49.78
2023-02-05T22:13:38.533Z,49.71
2023-02-05T22:16:09.987Z,49.74
2023-02-05T22:18:37.144Z,49.79
2023-02-05T22:21:14.728Z,49.34
2023-02-05T22:23:42.261Z,49.62
2023-02-05T22:26:09.457Z,49.68
2023-02-05T22:28:36.761Z,49.73
2023-02-05T22:31:06.161Z,49.80
2023-02-05T22:33:35.669Z,49.57
2023-02-05T22:36:03.094Z,49.80
2023-02-05T22:38:37.156Z,49.55
2023-02-05T22:41:08.667Z,49.75
2023-02-05T22:43:35.474Z,49.67
2023-02-05T22:46:06.738Z,49.71
2023-02-05T22:48:37.307Z,49.78
2023-02-05T22:51:05.493Z,49.90
2023-02-05T22:53:32.678Z,50.09
2023-02-05T22:56:04.080Z,49.46
2023-02-05T22:58:31.082Z,49.63
2023-02-05T23:00:58.514Z,49.49
2023-02-05T23:03:25.427Z,49.47
2023-02-05T23:05:53.020Z,49.66
2023-02-05T23:08:19.860Z,49.79
2023-02-05T23:10:46.946Z,49.67
2023-02-05T23:13:13.699Z,49.51
2023-02-05T23:15:40.709Z,49.84
2023-02-05T23:18:07.533Z,49.91
2023-02-05T23:20:34.601Z,49.83
2023-02-05T23:23:01.411Z,49.80
2023-02-05T23:25:28.451Z,50.15
2023-02-05T23:27:55.232Z,49.72
2023-02-05T23:30:22.461Z,50.05
2023-02-05T23:32:49.238Z,49.88
2023-02-05T23:35:21.379Z,49.66
2023-02-05T23:37:48.159Z,49.90
2023-02-05T23:40:15.257Z,49.68
2023-02-05T23:42:42.038Z,49.73
2023-02-05T23:45:09.403Z,49.65
2023-02-05T23:47:36.225Z,50.00
2023-02-05T23:50:03.586Z,49.61
2023-02-05T23:52:30.357Z,49.91
2023-02-05T23:54:57.476Z,50.28
2023-02-05T23:57:24.247Z,49.86
2023-02-05T23:59:51.333Z,50.05
